Time;durP1;ratioP1;P1;durP2;ratioP2;P2;SDS_P1;SDS_P2;PMS_P1;PMS_P2;Temp;Humidity;BMP_temperature;BMP_pressure;BME280_temperature;BME280_humidity;BME280_pressure;Samples;Min_cycle;Max_cycle;Signal;HPM_P1;HPM_P2
2023/04/23 00:00:39;;;;;;;50.45;35.88;;;;;;;-146.25;100.00;52112.72;2064109;28;34583;-73
2023/04/23 00:01:42;;;;;;;55.17;35.92;;;;;;;-146.25;100.00;52102.59;2072662;28;20034;-73
2023/04/23 00:02:45;;;;;;;55.75;36.88;;;;;;;-146.25;100.00;52149.22;2070491;28;36965;-72
2023/04/23 00:03:48;;;;;;;50.33;35.30;;;;;;;-146.25;100.00;52118.81;2064516;28;34875;-73
2023/04/23 00:04:51;;;;;;;47.20;32.90;;;;;;;-146.25;100.00;52110.69;2063257;28;32428;-73
2023/04/23 00:05:56;;;;;;;48.75;33.33;;;;;;;-146.25;100.00;52100.56;2064574;28;32045;-72
2023/04/23 00:06:59;;;;;;;50.97;33.35;;;;;;;-146.25;100.00;52098.53;2071946;28;20035;-72
2023/04/23 00:08:02;;;;;;;45.35;31.90;;;;;;;-146.25;100.00;52092.44;2071940;28;36203;-73
2023/04/23 00:09:06;;;;;;;47.58;31.92;;;;;;;-146.25;100.00;52080.28;2071288;28;35721;-73
2023/04/23 00:10:09;;;;;;;44.58;30.55;;;;;;;-146.25;100.00;52139.09;2065226;28;20035;-73
2023/04/23 00:11:11;;;;;;;44.70;32.70;;;;;;;-146.25;100.00;52100.56;2063875;28;32868;-72
2023/04/23 00:12:13;;;;;;;47.28;32.10;;;;;;;-146.25;100.00;52112.72;2064156;28;34688;-72
2023/04/23 00:13:15;;;;;;;46.05;31.25;;;;;;;-146.25;100.00;52128.94;2063782;28;35069;-73
2023/04/23 00:14:17;;;;;;;45.45;30.92;;;;;;;-146.25;100.00;52088.41;2064327;28;37642;-73
2023/04/23 00:15:21;;;;;;;45.47;32.78;;;;;;;-146.25;100.00;52126.91;2065009;28;20905;-73
2023/04/23 00:16:23;;;;;;;44.97;31.35;;;;;;;-146.25;100.00;52112.72;2071553;28;36557;-72
2023/04/23 00:17:25;;;;;;;43.40;31.30;;;;;;;-146.25;100.00;52116.78;2070548;28;34940;-73
2023/04/23 00:18:28;;;;;;;47.17;31.60;;;;;;;-146.25;100.00;52137.06;2064337;28;31941;-73
2023/04/23 00:19:30;;;;;;;44.40;30.95;;;;;;;-146.25;100.00;52076.22;2063210;28;32801;-72
2023/04/23 00:20:34;;;;;;;43.65;31.33;;;;;;;-146.25;100.00;52116.78;2065364;28;20047;-73
2023/04/23 00:21:36;;;;;;;45.80;31.25;;;;;;;-146.25;100.00;52098.53;2063876;28;36910;-73
2023/04/23 00:22:38;;;;;;;45.67;31.70;;;;;;;-146.25;100.00;52141.13;2064491;28;34765;-75
2023/04/23 00:23:40;;;;;;;43.83;30.92;;;;;;;-146.25;100.00;52153.28;2064279;28;20039;-73
2023/04/23 00:24:42;;;;;;;47.60;32.65;;;;;;;-146.25;100.00;52100.56;2064186;28;38567;-73
2023/04/23 00:25:44;;;;;;;46.15;32.40;;;;;;;-146.25;100.00;52133.00;2063956;28;32948;-73
2023/04/23 00:26:46;;;;;;;45.47;31.10;;;;;;;-146.25;100.00;52126.91;2063725;28;38037;-74
2023/04/23 00:27:47;;;;;;;44.65;30.45;;;;;;;-146.25;100.00;52124.91;2064363;28;24854;-72
2023/04/23 00:28:50;;;;;;;43.25;30.92;;;;;;;-146.25;100.00;52116.78;2072324;28;20034;-74
2023/04/23 00:29:52;;;;;;;45.30;31.73;;;;;;;-146.25;100.00;52122.88;2071769;28;20373;-73
2023/04/23 00:30:53;;;;;;;47.53;31.92;;;;;;;-146.25;100.00;52108.66;2063517;28;29062;-73
2023/04/23 00:31:55;;;;;;;44.40;31.45;;;;;;;-146.25;100.00;52149.22;2063235;28;20125;-73
2023/04/23 00:32:57;;;;;;;43.78;31.65;;;;;;;-146.25;100.00;52124.91;2071287;28;34448;-73
2023/04/23 00:33:59;;;;;;;44.78;30.67;;;;;;;-146.25;100.00;52080.28;2071898;28;20081;-73
2023/04/23 00:35:01;;;;;;;44.33;30.35;;;;;;;-146.25;100.00;52102.59;2063701;28;30201;-73
2023/04/23 00:36:03;;;;;;;47.28;31.42;;;;;;;-146.25;100.00;52104.63;2063957;28;28965;-73
2023/04/23 00:37:05;;;;;;;48.13;31.38;;;;;;;-146.25;100.00;52159.34;2065398;28;21265;-73
2023/04/23 00:38:07;;;;;;;46.03;31.75;;;;;;;-146.25;100.00;52153.28;2064328;28;20043;-73
2023/04/23 00:39:10;;;;;;;43.45;30.35;;;;;;;-146.25;100.00;52122.88;2064512;28;25362;-73
2023/04/23 00:40:12;;;;;;;45.92;31.33;;;;;;;-146.25;100.00;52143.13;2062960;28;36370;-73
2023/04/23 00:41:14;;;;;;;46.40;32.53;;;;;;;-146.25;100.00;52108.66;2063303;28;25136;-73
2023/04/23 00:42:16;;;;;;;48.42;32.67;;;;;;;-146.25;100.00;52135.03;2071297;28;28265;-73
2023/04/23 00:43:18;;;;;;;49.53;32.78;;;;;;;-146.25;100.00;52112.72;2064218;28;29323;-73
2023/04/23 00:44:19;;;;;;;48.38;32.80;;;;;;;-146.25;100.00;52114.75;2064503;28;20714;-74
2023/04/23 00:45:21;;;;;;;50.20;33.63;;;;;;;-146.25;100.00;52120.84;2071696;28;27158;-74
2023/04/23 00:46:25;;;;;;;48.67;32.05;;;;;;;-146.25;100.00;52088.41;2071603;28;28947;-73
2023/04/23 00:47:28;;;;;;;47.80;32.15;;;;;;;-146.25;100.00;52104.63;2064113;28;32038;-74
2023/04/23 00:48:32;;;;;;;45.75;30.73;;;;;;;-146.25;100.00;52110.69;2063684;28;20133;-73
2023/04/23 00:49:36;;;;;;;48.88;32.70;;;;;;;-146.25;100.00;52096.50;2071848;28;20034;-74
2023/04/23 00:50:38;;;;;;;47.10;32.33;;;;;;;-146.25;100.00;52128.94;2071622;28;22246;-74
2023/04/23 00:51:40;;;;;;;45.83;31.40;;;;;;;-146.25;100.00;52116.78;2071450;28;20385;-74
2023/04/23 00:52:42;;;;;;;47.33;32.15;;;;;;;-146.25;100.00;52080.28;2063464;28;20043;-74
2023/04/23 00:53:43;;;;;;;49.67;32.05;;;;;;;-146.25;100.00;52139.09;2063893;28;20035;-74
2023/04/23 00:54:47;;;;;;;49.13;31.02;;;;;;;-146.25;100.00;52139.09;2063913;28;26688;-74
2023/04/23 00:55:49;;;;;;;44.53;30.67;;;;;;;-146.25;100.00;52149.22;2064459;28;20043;-74
2023/04/23 00:56:56;;;;;;;49.08;32.35;;;;;;;-146.25;100.00;52112.72;2071405;28;24794;-74
2023/04/23 00:58:01;;;;;;;44.78;31.27;;;;;;;-146.25;100.00;52114.75;2071264;28;20046;-74
2023/04/23 00:59:03;;;;;;;47.00;30.10;;;;;;;-146.25;100.00;52112.72;2064344;28;20915;-74
2023/04/23 01:00:06;;;;;;;45.95;30.08;;;;;;;-146.25;100.00;52124.91;2063717;28;28135;-73
2023/04/23 01:01:08;;;;;;;42.85;30.35;;;;;;;-146.25;100.00;52106.66;2062965;28;34397;-74
2023/04/23 01:02:10;;;;;;;47.65;30.95;;;;;;;-146.25;100.00;52124.91;2064135;28;28777;-73
2023/04/23 01:03:12;;;;;;;43.58;29.52;;;;;;;-146.25;100.00;52100.56;2062725;28;27830;-74
2023/04/23 01:04:17;;;;;;;45.97;30.15;;;;;;;-146.25;100.00;52116.78;2063586;28;20054;-74
2023/04/23 01:05:20;;;;;;;46.65;31.05;;;;;;;-146.25;100.00;52110.69;2071105;28;33165;-74
2023/04/23 01:06:24;;;;;;;42.60;29.05;;;;;;;-146.25;100.00;52161.38;2071934;28;20037;-73
2023/04/23 01:07:26;;;;;;;47.75;30.02;;;;;;;-146.25;100.00;52159.34;2063878;28;20050;-74
2023/04/23 01:08:30;;;;;;;47.08;30.40;;;;;;;-146.25;100.00;52137.06;2072132;28;20038;-74
2023/04/23 01:09:32;;;;;;;46.75;29.80;;;;;;;-146.25;100.00;52157.34;2071329;28;20528;-74
2023/04/23 01:10:36;;;;;;;42.33;29.45;;;;;;;-146.25;100.00;52151.25;2063999;28;26351;-74
2023/04/23 01:11:41;;;;;;;44.33;29.77;;;;;;;-146.25;100.00;52116.78;2071478;28;20667;-74
2023/04/23 01:12:43;;;;;;;49.38;30.88;;;;;;;-146.25;100.00;52118.81;2071858;28;20089;-73
2023/04/23 01:13:44;;;;;;;44.55;29.85;;;;;;;-146.25;100.00;52141.13;2071361;28;21057;-74
2023/04/23 01:14:49;;;;;;;41.90;29.15;;;;;;;-146.25;100.00;52102.59;2064258;28;30583;-74
2023/04/23 01:15:51;;;;;;;44.22;29.85;;;;;;;-146.25;100.00;52133.00;2071105;28;27943;-74
2023/04/23 01:16:52;;;;;;;40.95;28.05;;;;;;;-146.25;100.00;52104.63;2070798;28;37773;-73
2023/04/23 01:17:56;;;;;;;40.95;27.50;;;;;;;-146.25;100.00;52112.72;2071159;28;20144;-73
2023/04/23 01:18:57;;;;;;;41.17;28.30;;;;;;;-146.25;100.00;52104.63;2071599;28;20081;-73
2023/04/23 01:19:59;;;;;;;45.78;30.33;;;;;;;-146.25;100.00;52112.72;2070833;28;31630;-73
2023/04/23 01:21:02;;;;;;;44.47;29.52;;;;;;;-146.25;100.00;52139.09;2071593;28;27961;-74
2023/04/23 01:22:10;;;;;;;45.95;29.55;;;;;;;-146.25;100.00;52167.47;2064722;28;20035;-74
2023/04/23 01:23:12;;;;;;;40.33;28.63;;;;;;;-146.25;100.00;52133.00;2071375;28;24642;-74
2023/04/23 01:24:15;;;;;;;42.95;28.67;;;;;;;-146.25;100.00;52157.34;2071411;28;20038;-74
2023/04/23 01:25:19;;;;;;;43.58;29.08;;;;;;;-146.25;100.00;52139.09;2064139;28;29464;-73
2023/04/23 01:26:23;;;;;;;42.72;29.25;;;;;;;-146.25;100.00;52153.28;2070952;28;30993;-73
2023/04/23 01:27:27;;;;;;;46.40;29.50;;;;;;;-146.25;100.00;52149.22;2071048;28;27710;-74
2023/04/23 01:28:29;;;;;;;43.90;28.67;;;;;;;-146.25;100.00;52110.69;2063429;28;30468;-73
2023/04/23 01:29:31;;;;;;;43.33;29.83;;;;;;;-146.25;100.00;52116.78;2071207;28;30235;-73
2023/04/23 01:30:34;;;;;;;41.05;28.13;;;;;;;-146.25;100.00;52100.56;2063325;28;20043;-73
2023/04/23 01:31:36;;;;;;;44.92;30.35;;;;;;;-146.25;100.00;52120.84;2063409;28;29855;-74
2023/04/23 01:32:39;;;;;;;45.00;28.60;;;;;;;-146.25;100.00;52133.00;2071538;28;20058;-73
2023/04/23 01:33:43;;;;;;;40.17;28.85;;;;;;;-146.25;100.00;52112.72;2071159;28;20708;-74
2023/04/23 01:34:47;;;;;;;42.20;29.27;;;;;;;-146.25;100.00;52114.75;2063782;28;22680;-74
2023/04/23 01:35:50;;;;;;;49.33;29.98;;;;;;;-146.25;100.00;52157.34;2064375;28;20086;-74
2023/04/23 01:36:53;;;;;;;43.78;29.45;;;;;;;-146.25;100.00;52102.59;2071257;28;22960;-73
2023/04/23 01:37:57;;;;;;;40.63;28.85;;;;;;;-146.25;100.00;52116.78;2072008;28;20042;-73
2023/04/23 01:38:59;;;;;;;40.97;28.27;;;;;;;-146.25;100.00;52122.88;2071086;28;23535;-73
2023/04/23 01:40:02;;;;;;;41.85;28.67;;;;;;;-146.25;100.00;52141.13;2071659;28;20062;-73
2023/04/23 01:41:06;;;;;;;41.50;28.17;;;;;;;-146.25;100.00;52137.06;2070932;28;27540;-73
2023/04/23 01:42:08;;;;;;;41.20;27.80;;;;;;;-146.25;100.00;52183.69;2071255;28;20089;-74
2023/04/23 01:43:11;;;;;;;38.30;27.23;;;;;;;-146.25;100.00;52102.59;2062849;28;30168;-74
2023/04/23 01:44:13;;;;;;;37.70;26.92;;;;;;;-146.25;100.00;52086.38;2063515;28;31783;-73
2023/04/23 01:45:18;;;;;;;39.70;26.52;;;;;;;-146.25;100.00;52147.19;2063405;28;28805;-73
2023/04/23 01:46:20;;;;;;;39.75;27.50;;;;;;;-146.25;100.00;52120.84;2064352;28;20039;-74
2023/04/23 01:47:22;;;;;;;37.13;25.95;;;;;;;-146.25;100.00;52173.56;2064122;28;20074;-73
2023/04/23 01:48:27;;;;;;;37.05;26.25;;;;;;;-146.25;100.00;52118.81;2071143;28;33935;-74
2023/04/23 01:49:29;;;;;;;39.55;27.23;;;;;;;-146.25;100.00;52120.84;2071372;28;20058;-74
2023/04/23 01:50:31;;;;;;;37.67;25.50;;;;;;;-146.25;100.00;52153.28;2071165;28;30492;-73
2023/04/23 01:51:34;;;;;;;35.65;25.77;;;;;;;-146.25;100.00;52161.38;2063972;28;20247;-74
2023/04/23 01:52:36;;;;;;;36.58;24.73;;;;;;;-146.25;100.00;52118.81;2063795;28;30111;-74
2023/04/23 01:53:40;;;;;;;40.78;25.63;;;;;;;-146.25;100.00;52133.00;2064152;28;20083;-74
2023/04/23 01:54:41;;;;;;;36.42;24.90;;;;;;;-146.25;100.00;52120.84;2063852;28;28390;-73
2023/04/23 01:55:47;;;;;;;35.60;24.63;;;;;;;-146.25;100.00;52128.94;2064215;28;31097;-74
2023/04/23 01:56:53;;;;;;;35.92;25.77;;;;;;;-146.25;100.00;52122.88;2071732;28;20081;-74
2023/04/23 01:57:55;;;;;;;36.63;24.10;;;;;;;-146.25;100.00;52145.16;2071273;28;20133;-74
2023/04/23 01:58:57;;;;;;;38.88;25.40;;;;;;;-146.25;100.00;52137.06;2071509;28;26474;-73
2023/04/23 02:00:07;;;;;;;37.60;25.52;;;;;;;-146.25;100.00;52183.69;2064196;28;20055;-74
2023/04/23 02:01:15;;;;;;;34.80;23.80;;;;;;;-146.25;100.00;52110.69;2071731;28;20128;-74
2023/04/23 02:02:18;;;;;;;34.90;25.17;;;;;;;-146.25;100.00;52155.31;2072221;28;26187;-73
2023/04/23 02:03:20;;;;;;;37.50;25.83;;;;;;;-146.25;100.00;52106.66;2071669;28;20978;-74
2023/04/23 02:04:22;;;;;;;34.88;24.25;;;;;;;-146.25;100.00;52130.97;2071996;28;30355;-74
2023/04/23 02:05:28;;;;;;;34.67;25.05;;;;;;;-146.25;100.00;52137.06;2071671;28;20042;-74
2023/04/23 02:06:31;;;;;;;36.65;25.13;;;;;;;-146.25;100.00;52169.50;2079102;28;35955;-74
2023/04/23 02:07:33;;;;;;;34.17;24.27;;;;;;;-146.25;100.00;52165.44;2079266;28;20802;-74
2023/04/23 02:08:35;;;;;;;34.67;25.35;;;;;;;-146.25;100.00;52177.59;2080051;28;20335;-74
2023/04/23 02:09:37;;;;;;;40.00;24.83;;;;;;;-146.25;100.00;52149.22;2071272;28;20046;-73
2023/04/23 02:10:39;;;;;;;34.50;24.38;;;;;;;-146.25;100.00;52124.91;2068788;28;20035;-73
2023/04/23 02:11:41;;;;;;;36.85;25.25;;;;;;;-146.25;100.00;52133.00;2071038;28;20053;-73
2023/04/23 02:12:44;;;;;;;40.97;26.77;;;;;;;-146.25;100.00;52135.03;2071008;28;33901;-73
2023/04/23 02:13:48;;;;;;;40.90;26.15;;;;;;;-146.25;100.00;52155.31;2070800;28;28058;-73
2023/04/23 02:14:51;;;;;;;38.00;26.30;;;;;;;-146.25;100.00;52143.13;2070410;28;31855;-73
2023/04/23 02:15:53;;;;;;;35.13;25.10;;;;;;;-146.25;100.00;52149.22;2070683;28;31734;-73
2023/04/23 02:16:56;;;;;;;41.83;25.92;;;;;;;-146.25;100.00;52118.81;2071061;28;20096;-73
2023/04/23 02:17:58;;;;;;;37.58;25.73;;;;;;;-146.25;100.00;52165.44;2062814;28;32654;-73
2023/04/23 02:19:00;;;;;;;37.05;24.60;;;;;;;-146.25;100.00;52177.59;2063340;28;32807;-73
2023/04/23 02:20:02;;;;;;;41.40;27.05;;;;;;;-146.25;100.00;52165.44;2063347;28;30239;-73
2023/04/23 02:21:05;;;;;;;36.90;25.70;;;;;;;-146.25;100.00;52177.59;2071446;28;20049;-73
2023/04/23 02:22:08;;;;;;;41.80;27.75;;;;;;;-146.25;100.00;52147.19;2070731;28;31803;-73
2023/04/23 02:23:11;;;;;;;37.83;26.17;;;;;;;-146.25;100.00;52116.78;2064228;28;20884;-73
2023/04/23 02:24:13;;;;;;;38.97;25.15;;;;;;;-146.25;100.00;52175.56;2062665;28;30946;-73
2023/04/23 02:25:16;;;;;;;38.72;27.20;;;;;;;-146.25;100.00;52143.13;2063455;28;20062;-73
2023/04/23 02:26:18;;;;;;;38.65;26.95;;;;;;;-146.25;100.00;52114.75;2063336;28;31029;-73
2023/04/23 02:27:21;;;;;;;36.90;25.45;;;;;;;-146.25;100.00;52165.44;2070898;28;24424;-73
2023/04/23 02:28:23;;;;;;;39.45;25.63;;;;;;;-146.25;100.00;52143.13;2072664;28;20039;-73
2023/04/23 02:29:24;;;;;;;41.17;26.80;;;;;;;-146.25;100.00;52112.72;2072750;28;29480;-73
2023/04/23 02:30:27;;;;;;;39.35;26.98;;;;;;;-146.25;100.00;52151.25;2065440;28;20035;-74
2023/04/23 02:31:28;;;;;;;43.08;26.67;;;;;;;-146.25;100.00;52143.13;2065591;28;20121;-73
2023/04/23 02:32:30;;;;;;;42.92;27.60;;;;;;;-146.25;100.00;52157.34;2064546;28;27923;-73
2023/04/23 02:33:32;;;;;;;37.80;25.67;;;;;;;-146.25;100.00;52157.34;2065241;28;20126;-73
2023/04/23 02:34:34;;;;;;;37.25;24.65;;;;;;;-146.25;100.00;52151.25;2064787;28;32206;-73
2023/04/23 02:35:35;;;;;;;47.38;28.80;;;;;;;-146.25;100.00;52114.75;2065221;28;28634;-73
2023/04/23 02:36:38;;;;;;;40.30;27.23;;;;;;;-146.25;100.00;52157.34;2064775;28;27480;-74
2023/04/23 02:37:39;;;;;;;40.33;26.70;;;;;;;-146.25;100.00;52137.06;2065062;28;28222;-74
2023/04/23 02:38:43;;;;;;;40.60;26.38;;;;;;;-146.25;100.00;52173.56;2065064;28;24811;-74
2023/04/23 02:39:45;;;;;;;46.33;27.67;;;;;;;-146.25;100.00;52169.50;2065016;28;27352;-74
2023/04/23 02:40:46;;;;;;;44.65;28.25;;;;;;;-146.25;100.00;52141.13;2064646;28;33493;-73
2023/04/23 02:41:48;;;;;;;42.97;28.15;;;;;;;-146.25;100.00;52181.66;2065365;28;20895;-73
2023/04/23 02:42:50;;;;;;;40.50;26.83;;;;;;;-146.25;100.00;52181.66;2071961;28;32430;-72
2023/04/23 02:43:52;;;;;;;42.15;27.73;;;;;;;-146.25;100.00;52133.00;2072223;28;31026;-72
2023/04/23 02:44:53;;;;;;;44.28;29.20;;;;;;;-146.25;100.00;52110.69;2064998;28;27260;-74
2023/04/23 02:45:55;;;;;;;43.70;29.17;;;;;;;-146.25;100.00;52153.28;2065148;28;20946;-73
2023/04/23 02:46:57;;;;;;;42.30;28.63;;;;;;;-146.25;100.00;52157.34;2065162;28;25127;-73
2023/04/23 02:47:59;;;;;;;40.53;27.60;;;;;;;-146.25;100.00;52120.84;2065001;28;27154;-73
2023/04/23 02:49:05;;;;;;;43.95;29.15;;;;;;;-146.25;100.00;52149.22;2065086;28;26665;-73
2023/04/23 02:50:07;;;;;;;41.83;26.65;;;;;;;-146.25;100.00;52173.56;2065236;28;30374;-73
2023/04/23 02:51:12;;;;;;;44.75;28.98;;;;;;;-146.25;100.00;52137.06;2065807;28;20067;-74
2023/04/23 02:52:13;;;;;;;40.70;27.35;;;;;;;-146.25;100.00;52133.00;2065076;28;24830;-73
2023/04/23 02:53:15;;;;;;;39.22;27.70;;;;;;;-146.25;100.00;52165.44;2064862;28;20970;-74
2023/04/23 02:54:17;;;;;;;42.30;28.40;;;;;;;-146.25;100.00;52157.34;2072441;28;20943;-73
2023/04/23 02:55:19;;;;;;;42.03;28.67;;;;;;;-146.25;100.00;52124.91;2064178;28;20050;-74
2023/04/23 02:56:21;;;;;;;49.28;31.17;;;;;;;-146.25;100.00;52118.81;2064099;28;20031;-73
2023/04/23 02:57:23;;;;;;;45.10;29.38;;;;;;;-146.25;100.00;52141.13;2072515;28;20069;-72
2023/04/23 02:58:25;;;;;;;45.47;28.63;;;;;;;-146.25;100.00;52157.34;2072547;28;20035;-72
2023/04/23 02:59:29;;;;;;;43.40;28.70;;;;;;;-146.25;100.00;52133.00;2072566;28;21018;-73
2023/04/23 03:00:31;;;;;;;41.80;27.90;;;;;;;-146.25;100.00;52149.22;2072583;28;20240;-73
2023/04/23 03:01:33;;;;;;;43.85;28.92;;;;;;;-146.25;100.00;52159.34;2072586;28;20050;-73
2023/04/23 03:02:35;;;;;;;45.10;29.83;;;;;;;-146.25;100.00;52165.44;2072305;28;20137;-73
2023/04/23 03:03:37;;;;;;;44.75;28.73;;;;;;;-146.25;100.00;52179.63;2072310;28;20125;-73
2023/04/23 03:04:40;;;;;;;49.15;30.13;;;;;;;-146.25;100.00;52118.81;2072159;28;20096;-73
2023/04/23 03:05:43;;;;;;;45.42;29.25;;;;;;;-146.25;100.00;52157.34;2072784;28;20168;-74
2023/04/23 03:06:44;;;;;;;44.22;29.23;;;;;;;-146.25;100.00;52137.06;2072547;28;20140;-73
2023/04/23 03:07:46;;;;;;;49.60;32.45;;;;;;;-146.25;100.00;52145.16;2071568;28;32342;-73
2023/04/23 03:08:48;;;;;;;47.30;29.55;;;;;;;-146.25;100.00;52112.72;2072590;28;20042;-74
2023/04/23 03:09:50;;;;;;;45.53;30.00;;;;;;;-146.25;100.00;52104.63;2064552;28;26752;-73
2023/04/23 03:10:52;;;;;;;46.25;30.02;;;;;;;-146.25;100.00;52195.84;2072701;28;20043;-73
2023/04/23 03:11:53;;;;;;;50.10;31.08;;;;;;;-146.25;100.00;52177.59;2072338;28;20900;-74
2023/04/23 03:12:56;;;;;;;49.03;30.92;;;;;;;-146.25;100.00;52167.47;2071658;28;24213;-74
2023/04/23 03:13:57;;;;;;;49.15;32.00;;;;;;;-146.25;100.00;52169.50;2072904;28;20255;-72
2023/04/23 03:15:16;;;;;;;52.55;32.63;;;;;;;-146.25;100.00;52149.22;2073161;28;20031;-75
2023/04/23 03:16:18;;;;;;;51.28;32.65;;;;;;;-146.25;100.00;52153.28;2079017;28;20172;-79
2023/04/23 03:17:20;;;;;;;48.42;31.20;;;;;;;-146.25;100.00;52151.25;2081848;28;20045;-79
2023/04/23 03:18:22;;;;;;;46.70;30.58;;;;;;;-146.25;100.00;52179.63;2075081;28;20045;-80
2023/04/23 03:19:27;;;;;;;49.08;31.50;;;;;;;-146.25;100.00;52128.94;2067497;28;20114;-80
2023/04/23 03:20:29;;;;;;;48.15;30.17;;;;;;;-146.25;100.00;52173.56;2064834;28;20951;-80
2023/04/23 03:21:31;;;;;;;49.22;31.67;;;;;;;-146.25;100.00;52187.75;2072037;28;23596;-79
2023/04/23 03:22:33;;;;;;;49.22;31.58;;;;;;;-146.25;100.00;52151.25;2072560;28;20043;-79
2023/04/23 03:23:35;;;;;;;52.33;31.75;;;;;;;-146.25;100.00;52167.47;2064356;28;20170;-79
2023/04/23 03:24:36;;;;;;;49.83;32.70;;;;;;;-146.25;100.00;52137.06;2072113;28;20039;-80
2023/04/23 03:25:38;;;;;;;50.13;32.72;;;;;;;-146.25;100.00;52153.28;2072784;28;20039;-80
2023/04/23 03:26:40;;;;;;;55.70;34.58;;;;;;;-146.25;100.00;52155.31;2080159;28;25533;-78
2023/04/23 03:27:43;;;;;;;54.63;33.08;;;;;;;-146.25;100.00;52173.56;2080940;28;20034;-77
2023/04/23 03:28:45;;;;;;;53.85;34.08;;;;;;;-146.25;100.00;52175.56;2072225;28;20061;-78
2023/04/23 03:29:47;;;;;;;54.00;34.65;;;;;;;-146.25;100.00;52173.56;2081216;28;20041;-79
2023/04/23 03:30:49;;;;;;;53.22;34.53;;;;;;;-146.25;100.00;52137.06;2097269;28;20145;-80
2023/04/23 03:31:51;;;;;;;55.95;35.00;;;;;;;-146.25;100.00;52218.16;2088806;28;20068;-80
2023/04/23 03:32:55;;;;;;;56.92;35.30;;;;;;;-146.25;100.00;52183.69;2072581;28;20138;-79
2023/04/23 03:33:57;;;;;;;53.65;33.90;;;;;;;-146.25;100.00;52133.00;2081190;28;20167;-80
2023/04/23 03:35:06;;;;;;;54.40;34.08;;;;;;;-146.25;100.00;52173.56;2087790;28;20897;-80
2023/04/23 03:36:07;;;;;;;54.05;33.22;;;;;;;-146.25;100.00;52141.13;2071477;28;20935;-80
2023/04/23 03:37:09;;;;;;;56.38;35.55;;;;;;;-146.25;100.00;52171.53;2064344;28;20046;-80
2023/04/23 03:38:12;;;;;;;47.47;31.65;;;;;;;-146.25;100.00;52149.22;2064820;28;20120;-80
2023/04/23 03:39:15;;;;;;;52.30;34.63;;;;;;;-146.25;100.00;52181.66;2063870;28;20082;-80
2023/04/23 03:40:24;;;;;;;51.75;33.92;;;;;;;-146.25;100.00;52193.81;2072678;28;20900;-80
2023/04/23 03:41:30;;;;;;;55.03;35.13;;;;;;;-146.25;100.00;52169.50;2064765;28;20652;-80
2023/04/23 03:42:33;;;;;;;52.70;34.15;;;;;;;-146.25;100.00;52135.03;2056509;28;20043;-79
2023/04/23 03:43:35;;;;;;;56.35;34.17;;;;;;;-146.25;100.00;52161.38;2056483;28;20842;-78
2023/04/23 03:44:39;;;;;;;55.65;33.03;;;;;;;-146.25;100.00;52143.13;2072634;28;20053;-79
2023/04/23 03:45:41;;;;;;;54.88;34.45;;;;;;;-146.25;100.00;52133.00;2072105;28;20042;-80
2023/04/23 03:46:44;;;;;;;54.58;34.30;;;;;;;-146.25;100.00;52149.22;2075509;28;20050;-78
2023/04/23 03:47:48;;;;;;;58.70;37.40;;;;;;;-146.25;100.00;52181.66;2064294;28;20944;-78
2023/04/23 03:48:51;;;;;;;55.95;35.83;;;;;;;-146.25;100.00;52159.34;2072359;28;20046;-80
2023/04/23 03:49:59;;;;;;;54.28;33.95;;;;;;;-146.25;100.00;52167.47;2081345;28;20638;-80
2023/04/23 03:51:01;;;;;;;55.13;35.28;;;;;;;-146.25;100.00;52145.16;2080517;28;20104;-79
2023/04/23 03:52:32;;;;;;;57.33;34.72;;;;;;;-146.25;100.00;52114.75;2051316;28;20161;-80
2023/04/23 03:53:34;;;;;;;54.47;34.28;;;;;;;-146.25;100.00;52141.13;2072185;28;20039;-79
2023/04/23 03:54:58;;;;;;;49.38;33.28;;;;;;;-146.25;100.00;52143.13;2072641;28;20058;-79
2023/04/23 03:56:08;;;;;;;57.88;36.00;;;;;;;-146.25;100.00;52165.44;2073030;28;20112;-79
2023/04/23 03:57:20;;;;;;;60.65;37.00;;;;;;;-146.25;100.00;52216.13;2080281;28;20042;-79
2023/04/23 03:58:48;;;;;;;56.63;35.78;;;;;;;-146.25;100.00;52137.06;2071539;28;20181;-80
2023/04/23 03:59:51;;;;;;;56.00;34.42;;;;;;;-146.25;100.00;52179.63;2072833;28;20058;-78
2023/04/23 04:00:53;;;;;;;63.15;36.83;;;;;;;-146.25;100.00;52159.34;2072434;28;20153;-78
2023/04/23 04:01:55;;;;;;;58.78;35.85;;;;;;;-146.25;100.00;52181.66;2080158;28;20072;-80
2023/04/23 04:03:00;;;;;;;66.88;38.53;;;;;;;-146.25;100.00;52173.56;2071974;28;20845;-79
2023/04/23 04:04:02;;;;;;;61.78;36.95;;;;;;;-146.25;100.00;52161.38;2081008;28;20033;-79
2023/04/23 04:05:08;;;;;;;59.15;37.20;;;;;;;-146.25;100.00;52163.41;2088189;28;20080;-77
2023/04/23 04:06:09;;;;;;;60.30;36.35;;;;;;;-146.25;100.00;52133.00;2063973;28;28871;-80
2023/04/23 04:07:27;;;;;;;63.22;38.78;;;;;;;-146.25;100.00;52169.50;2071665;28;32937;-80
2023/04/23 04:08:30;;;;;;;62.78;36.72;;;;;;;-146.25;100.00;52155.31;2072210;28;34835;-80
2023/04/23 04:09:32;;;;;;;61.80;37.45;;;;;;;-146.25;100.00;52181.66;2073019;28;20970;-80
2023/04/23 04:10:35;;;;;;;60.38;35.85;;;;;;;-146.25;100.00;52169.50;2071590;28;20046;-80
2023/04/23 04:11:37;;;;;;;65.88;39.38;;;;;;;-146.25;100.00;52173.56;2072442;28;21202;-78
2023/04/23 04:12:40;;;;;;;65.10;39.15;;;;;;;-146.25;100.00;52199.91;2071638;28;27060;-80
2023/04/23 04:13:43;;;;;;;57.03;35.08;;;;;;;-146.25;100.00;52173.56;2072500;28;20053;-80
2023/04/23 04:14:45;;;;;;;60.70;36.70;;;;;;;-146.25;100.00;52161.38;2071427;28;31521;-79
2023/04/23 04:15:49;;;;;;;55.95;35.05;;;;;;;-146.25;100.00;52124.91;2073072;28;20035;-79
2023/04/23 04:16:51;;;;;;;56.15;35.03;;;;;;;-146.25;100.00;52189.78;2071123;28;32737;-79
2023/04/23 04:17:52;;;;;;;48.50;32.72;;;;;;;-146.25;100.00;52159.34;2063691;28;26262;-80
2023/04/23 04:18:54;;;;;;;62.85;38.42;;;;;;;-146.25;100.00;52167.47;2071123;28;32165;-80
2023/04/23 04:19:57;;;;;;;63.05;37.88;;;;;;;-146.25;100.00;52177.59;2079745;28;38062;-79
2023/04/23 04:20:59;;;;;;;65.88;39.00;;;;;;;-146.25;100.00;52165.44;2079487;28;31855;-78
2023/04/23 04:22:02;;;;;;;69.28;38.80;;;;;;;-146.25;100.00;52197.88;2072378;28;34928;-78
2023/04/23 04:23:04;;;;;;;59.63;35.90;;;;;;;-146.25;100.00;52165.44;2072441;28;32520;-81
2023/04/23 04:24:05;;;;;;;61.88;37.53;;;;;;;-146.25;100.00;52165.44;2072094;28;36692;-80
2023/04/23 04:25:11;;;;;;;67.82;41.05;;;;;;;-146.25;100.00;52169.50;2071866;28;35404;-80
2023/04/23 04:26:15;;;;;;;66.18;39.10;;;;;;;-146.25;100.00;52157.34;2073294;28;20108;-79
2023/04/23 04:27:18;;;;;;;64.03;37.95;;;;;;;-146.25;100.00;52193.81;2072809;28;20785;-80
2023/04/23 04:28:19;;;;;;;68.53;39.92;;;;;;;-146.25;100.00;52163.41;2072506;28;34725;-80
2023/04/23 04:29:22;;;;;;;62.80;38.88;;;;;;;-146.25;100.00;52193.81;2072303;28;20849;-80
2023/04/23 04:30:25;;;;;;;61.50;36.05;;;;;;;-146.25;100.00;52135.03;2072093;28;40839;-80
2023/04/23 04:31:28;;;;;;;61.13;38.35;;;;;;;-146.25;100.00;52187.75;2072120;28;30553;-78
2023/04/23 04:32:30;;;;;;;68.57;40.65;;;;;;;-146.25;100.00;52175.56;2072413;28;34555;-79
2023/04/23 04:33:34;;;;;;;69.28;39.95;;;;;;;-146.25;100.00;52175.56;2071670;28;34209;-79
2023/04/23 04:34:37;;;;;;;67.45;40.08;;;;;;;-146.25;100.00;52189.78;2081009;28;20969;-79
2023/04/23 04:35:38;;;;;;;69.65;39.67;;;;;;;-146.25;100.00;52171.53;2078873;28;37798;-79
2023/04/23 04:36:41;;;;;;;73.75;40.33;;;;;;;-146.25;100.00;52153.28;2071971;28;33777;-80
2023/04/23 04:37:43;;;;;;;68.75;38.92;;;;;;;-146.25;100.00;52177.59;2071835;28;33383;-80
2023/04/23 04:38:45;;;;;;;66.72;38.47;;;;;;;-146.25;100.00;52120.84;2072266;28;37355;-79
2023/04/23 04:39:50;;;;;;;69.15;39.65;;;;;;;-146.25;100.00;52185.72;2071780;28;20077;-79
2023/04/23 04:40:57;;;;;;;75.88;41.15;;;;;;;-146.25;100.00;52171.53;2071942;28;38857;-80